Time;durP1;ratioP1;P1;durP2;ratioP2;P2;SDS_P1;SDS_P2;PMS_P1;PMS_P2;Temp;Humidity;BMP_temperature;BMP_pressure;BME280_temperature;BME280_humidity;BME280_pressure;Samples;Min_cycle;Max_cycle;Signal;HPM_P1;HPM_P2
2022/04/05 00:01:26;;;;;;;20.77;11.57;;;;;;;11.19;49.79;99550.41;3146622;28;20056;-67
2022/04/05 00:02:58;;;;;;;17.45;10.25;;;;;;;11.17;49.96;99550.47;3153481;28;20064;-67
2022/04/05 00:04:29;;;;;;;18.08;10.88;;;;;;;11.19;50.03;99553.03;3144409;28;20118;-67
2022/04/05 00:06:01;;;;;;;19.55;11.75;;;;;;;11.19;49.98;99550.41;3149216;28;20073;-67
2022/04/05 00:07:33;;;;;;;18.55;10.55;;;;;;;11.15;49.86;99547.09;3151087;28;20501;-68
2022/04/05 00:09:07;;;;;;;18.63;11.63;;;;;;;11.10;49.92;99530.88;3155919;28;20067;-69
2022/04/05 00:10:39;;;;;;;20.23;11.57;;;;;;;11.18;49.97;99543.50;3144536;28;20056;-67
2022/04/05 00:12:11;;;;;;;22.42;11.95;;;;;;;11.14;49.95;99542.81;3144086;28;20056;-66
2022/04/05 00:13:42;;;;;;;21.25;11.80;;;;;;;11.01;49.97;99518.34;3147911;28;20125;-66
2022/04/05 00:15:15;;;;;;;18.90;11.15;;;;;;;11.05;49.88;99528.50;3155950;28;20136;-67
2022/04/05 00:16:47;;;;;;;23.33;10.90;;;;;;;11.13;49.85;99549.81;3153625;28;20079;-67
2022/04/05 00:18:18;;;;;;;21.23;12.30;;;;;;;10.98;50.02;99519.31;3143947;28;20052;-67
2022/04/05 00:19:50;;;;;;;21.60;12.52;;;;;;;11.13;49.94;99541.16;3154151;28;20469;-67
2022/04/05 00:21:22;;;;;;;17.83;10.48;;;;;;;11.13;49.96;99539.38;3156328;28;20055;-67
2022/04/05 00:22:54;;;;;;;21.88;11.90;;;;;;;11.13;49.92;99543.75;3151368;28;20133;-67
2022/04/05 00:24:27;;;;;;;18.98;11.70;;;;;;;11.11;50.00;99536.00;3146205;28;20044;-67
2022/04/05 00:25:59;;;;;;;20.67;11.07;;;;;;;11.08;49.97;99543.13;3145748;28;20180;-67
2022/04/05 00:27:30;;;;;;;19.23;11.10;;;;;;;11.09;49.86;99539.59;3146920;28;20503;-67
2022/04/05 00:29:02;;;;;;;25.83;11.85;;;;;;;11.08;49.81;99543.97;3144642;28;20423;-67
2022/04/05 00:30:34;;;;;;;18.38;11.20;;;;;;;11.08;49.83;99546.59;3148420;28;20040;-67
2022/04/05 00:32:08;;;;;;;23.95;12.65;;;;;;;11.08;50.03;99553.56;3148467;28;20056;-67
2022/04/05 00:33:40;;;;;;;18.80;11.45;;;;;;;11.02;49.97;99539.06;3149080;28;20052;-67
2022/04/05 00:35:13;;;;;;;22.33;12.70;;;;;;;11.04;49.82;99537.25;3150321;28;20506;-67
2022/04/05 00:36:45;;;;;;;20.60;10.95;;;;;;;11.00;49.95;99527.88;3150085;28;20044;-68
2022/04/05 00:38:17;;;;;;;21.35;12.00;;;;;;;11.06;49.85;99535.41;3145202;28;20048;-67
2022/04/05 00:39:50;;;;;;;18.30;10.93;;;;;;;11.08;49.77;99530.94;3144858;28;20048;-67
2022/04/05 00:41:22;;;;;;;19.13;11.02;;;;;;;11.09;50.06;99529.19;3147719;28;20052;-67
2022/04/05 00:42:55;;;;;;;20.10;11.65;;;;;;;11.09;49.81;99523.97;3145293;28;20052;-68
2022/04/05 00:44:27;;;;;;;18.88;10.55;;;;;;;11.04;49.80;99516.41;3151114;28;20051;-68
2022/04/05 00:45:59;;;;;;;20.23;11.23;;;;;;;11.07;49.79;99526.66;3148938;28;20080;-68
2022/04/05 00:47:30;;;;;;;18.00;10.98;;;;;;;11.06;49.75;99525.00;3149500;28;20078;-68
2022/04/05 00:49:03;;;;;;;19.08;11.35;;;;;;;10.90;49.70;99492.81;3156144;28;20131;-66
2022/04/05 00:50:38;;;;;;;22.35;10.77;;;;;;;11.06;49.72;99517.19;3154979;28;20040;-68
2022/04/05 00:52:10;;;;;;;18.60;11.85;;;;;;;11.07;49.83;99516.25;3145405;28;20074;-67
2022/04/05 00:53:43;;;;;;;20.17;11.07;;;;;;;11.08;49.60;99509.25;3147431;28;20448;-67
2022/04/05 00:55:21;;;;;;;23.00;10.82;;;;;;;11.08;49.60;99510.09;3153156;28;20142;-69
2022/04/05 00:56:54;;;;;;;19.95;10.13;;;;;;;11.09;49.62;99510.94;3149220;28;20139;-69
2022/04/05 00:58:28;;;;;;;18.40;10.20;;;;;;;11.08;49.51;99507.50;3149437;28;20044;-69
2022/04/05 01:00:07;;;;;;;21.67;9.95;;;;;;;10.93;49.65;99477.03;3151168;28;20048;-69
2022/04/05 01:01:40;;;;;;;18.77;9.60;;;;;;;11.05;49.40;99497.22;3153255;28;20074;-67
2022/04/05 01:03:11;;;;;;;16.92;9.38;;;;;;;11.08;49.37;99512.69;3150618;28;20202;-66
2022/04/05 01:04:44;;;;;;;18.80;9.75;;;;;;;11.10;49.52;99502.22;3151743;28;20047;-68
2022/04/05 01:06:18;;;;;;;23.30;10.23;;;;;;;11.08;49.25;99507.50;3143751;28;20048;-66
2022/04/05 01:07:52;;;;;;;19.45;10.40;;;;;;;11.11;49.27;99504.72;3154859;28;20130;-68
2022/04/05 01:09:24;;;;;;;16.90;9.57;;;;;;;11.06;49.45;99496.31;3155942;28;20489;-68
2022/04/05 01:11:00;;;;;;;18.65;9.43;;;;;;;11.11;49.34;99496.91;3152300;28;20132;-69
2022/04/05 01:12:32;;;;;;;14.88;9.38;;;;;;;11.12;49.16;99503.81;3154846;28;20048;-69
2022/04/05 01:14:05;;;;;;;20.27;9.38;;;;;;;11.14;49.11;99495.91;3151341;28;20196;-69
2022/04/05 01:15:36;;;;;;;20.33;9.15;;;;;;;11.14;49.10;99493.31;3151933;28;20070;-69
2022/04/05 01:17:09;;;;;;;17.50;10.23;;;;;;;11.14;48.72;99496.75;3155017;28;20044;-69
2022/04/05 01:18:41;;;;;;;14.85;9.00;;;;;;;11.12;48.87;99490.78;3150196;28;20113;-69
2022/04/05 01:20:13;;;;;;;19.17;8.93;;;;;;;11.12;48.85;99490.78;3156012;28;20097;-69
2022/04/05 01:21:44;;;;;;;16.50;8.75;;;;;;;11.12;48.73;99488.19;3144310;28;20056;-69
2022/04/05 01:23:21;;;;;;;16.98;8.73;;;;;;;11.21;48.62;99491.22;3143986;28;20132;-68
2022/04/05 01:24:55;;;;;;;19.33;9.70;;;;;;;11.19;48.75;99487.88;3147016;28;20129;-69
2022/04/05 01:26:26;;;;;;;14.20;8.82;;;;;;;11.18;48.70;99491.38;3145583;28;20118;-69
2022/04/05 01:27:58;;;;;;;16.58;9.13;;;;;;;11.14;48.67;99475.91;3146213;28;20586;-68
2022/04/05 01:29:31;;;;;;;15.68;8.80;;;;;;;11.19;48.55;99486.09;3147964;28;20052;-68
2022/04/05 01:31:03;;;;;;;14.85;8.77;;;;;;;11.18;48.91;99480.94;3154438;28;20109;-68
2022/04/05 01:32:35;;;;;;;18.58;8.73;;;;;;;11.18;48.81;99483.56;3146390;28;20048;-69
2022/04/05 01:34:08;;;;;;;13.88;8.20;;;;;;;11.11;48.75;99473.44;3155288;28;20090;-66
2022/04/05 01:35:40;;;;;;;20.83;9.52;;;;;;;11.18;48.67;99473.13;3150812;28;20741;-67
2022/04/05 01:37:12;;;;;;;14.80;9.02;;;;;;;11.15;48.71;99469.78;3155941;28;20052;-69
2022/04/05 01:38:43;;;;;;;16.95;7.97;;;;;;;11.16;48.66;99473.22;3148542;28;20059;-67
2022/04/05 01:40:16;;;;;;;13.75;7.82;;;;;;;11.18;48.62;99473.13;3151089;28;20533;-69
2022/04/05 01:41:51;;;;;;;17.17;8.50;;;;;;;11.18;48.57;99474.00;3154301;28;20176;-69
2022/04/05 01:43:23;;;;;;;14.98;8.65;;;;;;;11.13;48.67;99466.41;3144202;28;20095;-69
2022/04/05 01:44:55;;;;;;;14.52;8.57;;;;;;;11.15;48.66;99472.38;3155333;28;20102;-69
2022/04/05 01:46:27;;;;;;;15.07;7.65;;;;;;;11.18;48.56;99470.53;3158044;28;20472;-69
2022/04/05 01:47:58;;;;;;;12.75;7.40;;;;;;;11.16;48.30;99465.41;3152754;28;20444;-69
2022/04/05 01:49:30;;;;;;;14.80;8.18;;;;;;;11.14;48.45;99464.63;3156358;28;20117;-68
2022/04/05 01:51:02;;;;;;;12.90;7.47;;;;;;;11.16;48.38;99466.25;3153912;28;20052;-68
2022/04/05 01:52:34;;;;;;;18.10;7.95;;;;;;;11.17;48.45;99469.69;3153823;28;20056;-69
2022/04/05 01:54:06;;;;;;;11.00;7.00;;;;;;;11.15;48.39;99463.69;3157696;28;20062;-69
2022/04/05 01:55:39;;;;;;;13.25;6.85;;;;;;;11.11;48.41;99454.38;3150825;28;20045;-69
2022/04/05 01:57:11;;;;;;;15.05;7.07;;;;;;;11.14;48.31;99465.47;3154620;28;20154;-69
2022/04/05 01:58:43;;;;;;;11.50;6.47;;;;;;;11.18;48.21;99466.19;3157522;28;20048;-70
2022/04/05 02:00:16;;;;;;;16.73;7.20;;;;;;;11.19;48.26;99467.84;3146553;28;20052;-69
2022/04/05 02:01:49;;;;;;;11.18;6.53;;;;;;;11.21;47.94;99465.16;3156814;28;20109;-69
2022/04/05 02:03:21;;;;;;;10.17;6.40;;;;;;;11.14;47.96;99454.22;3158071;28;20052;-69
2022/04/05 02:04:53;;;;;;;14.73;8.93;;;;;;;11.15;48.10;99461.09;3154685;28;20455;-69
2022/04/05 02:06:25;;;;;;;25.65;11.00;;;;;;;11.11;48.52;99456.97;3146640;28;20466;-70
2022/04/05 02:07:57;;;;;;;27.25;11.52;;;;;;;11.08;48.88;99471.00;3149452;28;20117;-69
2022/04/05 02:09:28;;;;;;;35.88;12.50;;;;;;;11.11;48.80;99464.81;3157399;28;20068;-69
2022/04/05 02:11:02;;;;;;;32.88;13.57;;;;;;;11.11;48.98;99468.25;3147803;28;20056;-69
2022/04/05 02:12:32;;;;;;;24.58;12.80;;;;;;;11.08;49.42;99468.41;3152042;28;20504;-69
2022/04/05 02:14:04;;;;;;;22.73;12.23;;;;;;;10.90;49.56;99432.91;3146589;28;20139;-67
2022/04/05 02:15:36;;;;;;;19.50;11.05;;;;;;;11.05;49.70;99462.53;3154330;28;20123;-68
2022/04/05 02:17:09;;;;;;;20.27;11.50;;;;;;;11.03;49.58;99465.22;3147951;28;20081;-68
2022/04/05 02:18:41;;;;;;;19.63;10.57;;;;;;;11.01;49.67;99455.78;3147142;28;20071;-68
2022/04/05 02:20:13;;;;;;;20.02;11.10;;;;;;;11.04;49.79;99466.91;3156836;28;20060;-68
2022/04/05 02:21:45;;;;;;;21.52;11.43;;;;;;;10.99;49.90;99458.47;3157661;28;20079;-67
2022/04/05 02:23:17;;;;;;;19.25;10.60;;;;;;;11.01;49.91;99461.00;3154593;28;20105;-67
2022/04/05 02:24:48;;;;;;;17.67;11.20;;;;;;;11.03;49.92;99467.81;3157451;28;20570;-68
2022/04/05 02:26:21;;;;;;;26.25;11.90;;;;;;;11.02;50.02;99463.50;3152529;28;20177;-70
2022/04/05 02:27:53;;;;;;;18.77;11.45;;;;;;;11.01;50.33;99461.00;3155460;28;20135;-70
2022/04/05 02:29:25;;;;;;;20.15;10.93;;;;;;;11.00;50.27;99462.75;3155288;28;20752;-69
2022/04/05 02:30:58;;;;;;;23.98;10.80;;;;;;;11.01;50.35;99461.00;3157413;28;20047;-69
2022/04/05 02:32:30;;;;;;;18.58;10.90;;;;;;;10.97;50.48;99460.31;3150987;28;20502;-69
2022/04/05 02:34:02;;;;;;;20.70;11.90;;;;;;;10.98;50.61;99469.00;3154090;28;20052;-68
2022/04/05 02:35:34;;;;;;;21.00;11.85;;;;;;;10.94;50.57;99457.84;3148732;28;20056;-68
2022/04/05 02:37:06;;;;;;;20.45;11.73;;;;;;;10.91;50.72;99460.63;3157049;28;20054;-67
2022/04/05 02:38:38;;;;;;;21.70;12.05;;;;;;;10.89;51.08;99454.66;3152383;28;20525;-67
2022/04/05 02:40:11;;;;;;;24.13;11.25;;;;;;;10.90;51.14;99464.16;3154807;28;20145;-67
2022/04/05 02:41:44;;;;;;;18.65;11.70;;;;;;;10.84;51.25;99456.66;3157111;28;20052;-67
2022/04/05 02:43:15;;;;;;;19.75;11.35;;;;;;;10.80;51.42;99453.38;3153615;28;20074;-68
2022/04/05 02:44:47;;;;;;;18.50;11.05;;;;;;;10.81;51.52;99457.66;3157167;28;20056;-67
2022/04/05 02:46:19;;;;;;;20.98;11.95;;;;;;;10.68;51.63;99428.81;3153402;28;20130;-68
2022/04/05 02:47:50;;;;;;;22.63;11.60;;;;;;;10.85;51.55;99460.94;3157786;28;20090;-67
2022/04/05 02:49:22;;;;;;;25.92;12.43;;;;;;;10.84;51.63;99460.09;3152829;28;20071;-67
2022/04/05 02:50:53;;;;;;;21.67;11.20;;;;;;;10.83;51.62;99457.59;3157286;28;20044;-68
2022/04/05 02:52:25;;;;;;;23.02;11.40;;;;;;;10.82;51.57;99454.13;3151617;28;20559;-67
2022/04/05 02:53:57;;;;;;;22.05;11.52;;;;;;;10.83;51.66;99455.81;3145365;28;20056;-68
2022/04/05 02:55:29;;;;;;;23.52;11.60;;;;;;;10.84;51.73;99462.72;3154781;28;20471;-68
2022/04/05 02:57:02;;;;;;;20.38;11.15;;;;;;;10.84;51.95;99459.28;3153474;28;20056;-68
2022/04/05 02:58:34;;;;;;;20.42;12.23;;;;;;;10.80;51.95;99447.34;3156586;28;20050;-68
2022/04/05 03:00:08;;;;;;;22.05;12.25;;;;;;;10.83;51.76;99462.81;3151336;28;20067;-68
2022/04/05 03:01:40;;;;;;;22.17;11.02;;;;;;;10.81;51.66;99451.63;3154381;28;20044;-68
2022/04/05 03:03:12;;;;;;;21.42;10.57;;;;;;;10.81;51.97;99454.22;3151562;28;20123;-68
2022/04/05 03:04:43;;;;;;;23.75;10.63;;;;;;;10.81;51.87;99455.06;3157476;28;20184;-68
2022/04/05 03:06:16;;;;;;;31.73;11.80;;;;;;;10.78;51.86;99442.19;3148601;28;20048;-68
2022/04/05 03:07:48;;;;;;;;;;;;;;;10.63;52.07;99456.00;3155568;28;20076;-68
2022/04/05 03:09:21;;;;;;;23.85;12.45;;;;;;;10.67;52.42;99452.31;3149198;28;20364;-68
2022/04/05 03:10:53;;;;;;;23.23;12.65;;;;;;;10.70;52.41;99457.38;3156825;28;20109;-67
2022/04/05 03:12:27;;;;;;;24.35;13.75;;;;;;;10.70;52.49;99458.19;3155508;28;20086;-67
2022/04/05 03:13:58;;;;;;;;;;;;;;;10.51;52.65;99452.25;3147515;28;20055;-67
2022/04/05 03:15:30;;;;;;;27.75;14.90;;;;;;;10.58;52.89;99458.81;3148318;28;19924;-67
2022/04/05 03:17:02;;;;;;;32.30;14.18;;;;;;;10.60;53.26;99449.19;3152008;28;20052;-67
2022/04/05 03:18:34;;;;;;;25.00;14.27;;;;;;;10.62;53.18;99452.56;3156935;28;20047;-67
2022/04/05 03:20:06;;;;;;;25.95;15.25;;;;;;;10.63;53.56;99453.41;3148442;28;20346;-67
2022/04/05 03:21:38;;;;;;;27.80;14.80;;;;;;;10.61;53.74;99458.66;3145008;28;20475;-67
2022/04/05 03:23:10;;;;;;;25.42;14.50;;;;;;;10.55;54.06;99450.34;3154494;28;20476;-69
2022/04/05 03:24:40;;;;;;;28.45;15.38;;;;;;;10.48;54.15;99436.78;3157265;28;20430;-68
2022/04/05 03:26:12;;;;;;;25.92;14.38;;;;;;;10.52;53.97;99446.13;3150317;28;20188;-69
2022/04/05 03:27:46;;;;;;;25.58;13.25;;;;;;;10.50;54.06;99440.16;3145237;28;20048;-69
2022/04/05 03:29:18;;;;;;;23.85;14.02;;;;;;;10.49;54.40;99446.28;3147994;28;20172;-68
2022/04/05 03:30:50;;;;;;;24.77;13.75;;;;;;;10.46;54.31;99449.03;3150659;28;20060;-67
2022/04/05 03:32:21;;;;;;;30.25;14.27;;;;;;;10.44;54.48;99445.66;3147296;28;20600;-69
2022/04/05 03:33:53;;;;;;;25.33;14.05;;;;;;;10.40;54.76;99441.53;3150490;28;20203;-69
2022/04/05 03:35:25;;;;;;;22.00;13.75;;;;;;;10.41;54.80;99445.81;3156797;28;20052;-69
2022/04/05 03:36:57;;;;;;;25.30;14.68;;;;;;;10.42;55.03;99448.34;3155860;28;20101;-69
2022/04/05 03:38:29;;;;;;;26.00;14.07;;;;;;;10.40;54.93;99446.75;3141130;28;20572;-68
2022/04/05 03:40:01;;;;;;;26.52;13.73;;;;;;;10.38;54.99;99448.56;3144772;28;20199;-68
2022/04/05 03:41:33;;;;;;;24.92;13.85;;;;;;;10.32;55.09;99441.06;3137035;28;20056;-68
2022/04/05 03:43:11;;;;;;;24.40;13.63;;;;;;;10.31;55.14;99439.41;3143404;28;20060;-67
2022/04/05 03:44:43;;;;;;;19.52;12.00;;;;;;;10.32;55.13;99454.09;3147779;28;20509;-67
2022/04/05 03:46:15;;;;;;;24.85;13.30;;;;;;;10.31;55.46;99457.63;3146425;28;20063;-67
2022/04/05 03:47:47;;;;;;;32.97;13.43;;;;;;;10.31;55.20;99453.25;3139625;28;20060;-69
2022/04/05 03:49:19;;;;;;;24.48;13.90;;;;;;;10.29;55.40;99452.47;3137713;28;20051;-69
2022/04/05 03:50:51;;;;;;;20.13;13.05;;;;;;;10.21;55.27;99446.78;3140482;28;20512;-70
2022/04/05 03:52:23;;;;;;;26.58;12.43;;;;;;;10.25;55.50;99451.75;3147718;28;20168;-69
2022/04/05 03:53:55;;;;;;;21.88;11.63;;;;;;;9.90;55.23;99404.06;3147395;28;20059;-69
2022/04/05 03:55:26;;;;;;;20.70;12.70;;;;;;;10.22;55.46;99456.28;3147056;28;20048;-68
2022/04/05 03:56:58;;;;;;;20.17;12.02;;;;;;;10.21;55.52;99454.59;3138799;28;20126;-67
2022/04/05 03:58:32;;;;;;;22.08;12.07;;;;;;;10.22;55.46;99459.72;3147033;28;20094;-67
2022/04/05 04:00:04;;;;;;;;;;;;;;;10.03;55.53;99469.34;3146894;28;20101;-68
2022/04/05 04:01:36;;;;;;;18.95;11.75;;;;;;;10.09;55.38;99453.44;3139138;28;19924;-67
2022/04/05 04:03:08;;;;;;;26.02;12.88;;;;;;;10.03;55.42;99444.16;3146491;28;20109;-68
2022/04/05 04:04:41;;;;;;;30.13;13.25;;;;;;;10.13;55.37;99462.78;3144008;28;20052;-67
2022/04/05 04:06:13;;;;;;;24.20;13.10;;;;;;;10.12;55.17;99466.28;3144267;28;20436;-68
2022/04/05 04:07:45;;;;;;;20.13;12.77;;;;;;;10.14;55.11;99459.25;3142700;28;20117;-67
2022/04/05 04:09:17;;;;;;;24.15;12.32;;;;;;;10.15;54.87;99465.31;3147589;28;20180;-67
2022/04/05 04:10:51;;;;;;;22.77;12.32;;;;;;;10.13;55.02;99460.16;3142018;28;20305;-66
2022/04/05 04:12:23;;;;;;;18.98;12.00;;;;;;;10.14;55.05;99459.25;3138916;28;20987;-66
2022/04/05 04:13:56;;;;;;;20.95;12.98;;;;;;;10.15;54.88;99458.34;3138160;28;20533;-67
2022/04/05 04:15:28;;;;;;;;;;;;;;;9.97;54.85;99457.47;3141241;28;20114;-67
2022/04/05 04:17:00;;;;;;;22.30;12.07;;;;;;;10.03;55.13;99462.38;3138088;28;19968;-67
2022/04/05 04:18:32;;;;;;;24.23;12.57;;;;;;;10.10;54.84;99454.28;3145909;28;20052;-67
2022/04/05 04:20:06;;;;;;;25.58;12.95;;;;;;;10.10;55.00;99457.72;3145374;28;20187;-66
2022/04/05 04:21:38;;;;;;;26.13;14.10;;;;;;;10.10;54.89;99452.50;3141925;28;20654;-67
2022/04/05 04:23:10;;;;;;;25.77;13.02;;;;;;;10.14;54.83;99461.00;3135692;28;20482;-67
2022/04/05 04:24:42;;;;;;;27.48;12.20;;;;;;;10.13;54.89;99456.72;3141766;28;20483;-66
2022/04/05 04:26:14;;;;;;;26.30;12.68;;;;;;;10.14;54.95;99456.63;3146129;28;20369;-67
2022/04/05 04:27:47;;;;;;;21.73;13.00;;;;;;;10.16;54.82;99460.00;3143085;28;20481;-67
2022/04/05 04:29:19;;;;;;;26.65;12.88;;;;;;;10.14;55.12;99456.63;3141185;28;20155;-67
2022/04/05 04:30:52;;;;;;;25.50;12.68;;;;;;;10.08;55.24;99459.53;3146579;28;20098;-67
2022/04/05 04:32:24;;;;;;;31.27;12.35;;;;;;;10.12;54.99;99450.69;3136077;28;20048;-68
2022/04/05 04:33:56;;;;;;;29.52;12.75;;;;;;;10.12;54.99;99455.06;3140383;28;20086;-69
2022/04/05 04:35:28;;;;;;;24.13;12.30;;;;;;;10.18;54.81;99458.19;3144477;28;20052;-68
2022/04/05 04:37:01;;;;;;;30.60;13.20;;;;;;;10.22;54.80;99456.28;3140471;28;20616;-68
2022/04/05 04:38:33;;;;;;;25.33;12.32;;;;;;;10.22;54.61;99454.50;3135247;28;20056;-67
2022/04/05 04:40:06;;;;;;;27.02;12.80;;;;;;;10.08;54.56;99430.91;3137557;28;20056;-68
2022/04/05 04:41:38;;;;;;;;;;;;;;;10.10;54.80;99464.69;3141162;28;20234;-68
2022/04/05 04:43:10;;;;;;;22.80;11.13;;;;;;;10.20;54.58;99463.31;3146475;28;19951;-67
2022/04/05 04:44:43;;;;;;;20.85;12.25;;;;;;;10.29;54.27;99460.28;3138594;28;20059;-67
2022/04/05 04:46:16;;;;;;;23.70;11.27;;;;;;;10.32;54.20;99460.13;3146517;28;20059;-68
2022/04/05 04:47:47;;;;;;;23.15;11.38;;;;;;;10.38;53.84;99461.59;3145021;28;20087;-68
2022/04/05 04:49:20;;;;;;;26.38;13.02;;;;;;;10.42;53.76;99466.56;3147103;28;20512;-68
2022/04/05 04:50:52;;;;;;;21.40;12.05;;;;;;;10.45;53.46;99463.81;3145913;28;20062;-68
2022/04/05 04:52:26;;;;;;;28.95;13.68;;;;;;;10.46;53.48;99469.84;3145486;28;20171;-68
2022/04/05 04:53:58;;;;;;;27.63;12.65;;;;;;;10.48;53.32;99460.22;3145895;28;20503;-68
2022/04/05 04:55:29;;;;;;;26.90;13.05;;;;;;;10.52;53.38;99464.34;3141165;28;20274;-67
2022/04/05 04:57:02;;;;;;;25.95;13.75;;;;;;;10.54;53.38;99465.13;3138384;28;20050;-68
2022/04/05 04:58:34;;;;;;;34.45;15.95;;;;;;;10.55;53.37;99461.59;3141820;28;20367;-66
2022/04/05 05:00:11;;;;;;;36.33;15.68;;;;;;;10.54;53.41;99454.72;3145928;28;20159;-68
2022/04/05 05:01:43;;;;;;;39.03;16.08;;;;;;;10.59;53.81;99457.94;3145029;28;20048;-67
2022/04/05 05:03:18;;;;;;;33.22;17.17;;;;;;;10.61;53.79;99466.47;3146017;28;20063;-67
2022/04/05 05:04:50;;;;;;;31.55;16.98;;;;;;;10.57;54.17;99459.75;3145006;28;20048;-66
2022/04/05 05:06:22;;;;;;;28.95;16.17;;;;;;;10.46;54.14;99457.69;3146478;28;20064;-68
2022/04/05 05:07:54;;;;;;;28.85;15.93;;;;;;;10.55;53.89;99465.97;3140271;28;20569;-69
2022/04/05 05:09:26;;;;;;;23.92;14.32;;;;;;;10.56;53.94;99455.47;3135300;28;20577;-68
2022/04/05 05:10:58;;;;;;;28.75;14.35;;;;;;;10.62;53.84;99460.38;3136319;28;20429;-69
2022/04/05 05:12:30;;;;;;;22.67;14.00;;;;;;;10.63;53.74;99459.44;3144113;28;20051;-68
2022/04/05 05:14:02;;;;;;;27.02;13.98;;;;;;;10.65;53.59;99464.59;3142360;28;20048;-68
2022/04/05 05:15:36;;;;;;;29.95;14.43;;;;;;;10.68;53.55;99467.03;3139260;28;20052;-68
2022/04/05 05:17:08;;;;;;;33.20;13.88;;;;;;;10.70;53.47;99468.63;3136219;28;20432;-67
2022/04/05 05:18:40;;;;;;;29.05;14.50;;;;;;;10.66;53.50;99458.44;3144243;28;20048;-68
2022/04/05 05:20:13;;;;;;;28.67;15.15;;;;;;;10.68;53.54;99460.06;3149828;28;20064;-68
2022/04/05 05:21:45;;;;;;;;;;;;;;;10.56;53.61;99473.72;3144755;28;20048;-68
2022/04/05 05:23:18;;;;;;;26.30;13.07;;;;;;;10.63;53.75;99469.84;3146705;28;19924;-68
2022/04/05 05:24:50;;;;;;;27.95;14.15;;;;;;;10.73;53.56;99477.19;3142308;28;20386;-68
2022/04/05 05:26:22;;;;;;;24.55;13.85;;;;;;;10.80;53.69;99474.22;3148936;28;20088;-68
2022/04/05 05:27:54;;;;;;;26.63;12.88;;;;;;;10.82;53.58;99479.34;3149451;28;20112;-68
2022/04/05 05:29:26;;;;;;;22.42;12.68;;;;;;;10.47;53.39;99422.09;3148683;28;20050;-68
2022/04/05 05:30:59;;;;;;;23.45;13.70;;;;;;;10.91;53.20;99477.13;3146793;28;20557;-68
2022/04/05 05:32:32;;;;;;;29.17;14.15;;;;;;;10.94;53.10;99478.69;3148103;28;20062;-68
2022/04/05 05:34:04;;;;;;;24.95;12.73;;;;;;;10.97;53.18;99482.91;3151631;28;20238;-67
2022/04/05 05:35:36;;;;;;;29.00;14.05;;;;;;;11.02;53.11;99480.91;3156937;28;20079;-67
2022/04/05 05:37:08;;;;;;;27.45;14.15;;;;;;;11.03;53.24;99477.38;3157028;28;20455;-67
2022/04/05 05:38:40;;;;;;;25.27;14.10;;;;;;;11.08;53.13;99478.81;3157521;28;20100;-67
2022/04/05 05:40:14;;;;;;;29.23;13.52;;;;;;;11.03;53.06;99464.34;3154894;28;20048;-67
2022/04/05 05:41:47;;;;;;;22.77;13.27;;;;;;;11.16;52.75;99474.06;3156983;28;20535;-67
2022/04/05 05:43:19;;;;;;;18.10;11.93;;;;;;;11.22;52.83;99477.28;3156579;28;20052;-68
2022/04/05 05:44:51;;;;;;;26.08;12.85;;;;;;;11.26;52.61;99482.22;3156774;28;20063;-67
2022/04/05 05:46:24;;;;;;;21.10;12.73;;;;;;;11.27;52.47;99475.25;3157052;28;20083;-67
2022/04/05 05:47:56;;;;;;;23.95;12.02;;;;;;;11.28;52.18;99482.16;3155678;28;20456;-68
2022/04/05 05:49:28;;;;;;;22.15;11.98;;;;;;;11.32;52.39;99478.47;3156806;28;20056;-67
2022/04/05 05:51:00;;;;;;;24.73;12.32;;;;;;;11.33;52.22;99474.94;3153217;28;20109;-66
2022/04/05 05:52:32;;;;;;;24.52;12.77;;;;;;;11.35;52.09;99473.06;3152141;28;20125;-66
2022/04/05 05:54:04;;;;;;;25.90;12.90;;;;;;;11.39;51.88;99482.44;3152129;28;20056;-65
2022/04/05 05:55:36;;;;;;;20.17;11.52;;;;;;;11.39;52.36;99479.84;3148583;28;20048;-66
2022/04/05 05:57:08;;;;;;;23.67;12.77;;;;;;;11.36;52.08;99485.22;3154093;28;20083;-66
2022/04/05 05:58:40;;;;;;;25.73;15.77;;;;;;;11.30;52.70;99470.72;3152179;28;20044;-66
2022/04/05 06:00:17;;;;;;;21.33;12.10;;;;;;;11.30;52.69;99468.13;3150310;28;20044;-66
2022/04/05 06:01:50;;;;;;;20.65;12.02;;;;;;;11.32;52.46;99484.50;3154826;28;20381;-67
2022/04/05 06:03:22;;;;;;;21.27;11.30;;;;;;;11.32;52.67;99479.28;3154057;28;20122;-64
2022/04/05 06:04:54;;;;;;;26.65;11.43;;;;;;;11.35;52.65;99478.28;3146664;28;20456;-63
2022/04/05 06:06:28;;;;;;;19.63;11.70;;;;;;;11.36;52.62;99483.44;3151416;28;20048;-67
2022/04/05 06:08:00;;;;;;;30.15;11.55;;;;;;;11.15;52.49;99443.72;3151985;28;20114;-63
2022/04/05 06:09:32;;;;;;;24.38;12.45;;;;;;;11.48;52.34;99484.53;3150838;28;20059;-63
2022/04/05 06:11:05;;;;;;;23.42;12.13;;;;;;;11.55;52.12;99480.66;3154621;28;20121;-67
2022/04/05 06:12:38;;;;;;;18.05;10.75;;;;;;;11.57;51.86;99478.84;3154108;28;20048;-66
2022/04/05 06:14:10;;;;;;;18.55;10.27;;;;;;;11.60;51.79;99483.88;3152601;28;20466;-67
2022/04/05 06:15:42;;;;;;;24.95;11.43;;;;;;;11.65;52.00;99482.78;3148469;28;20053;-67
2022/04/05 06:17:15;;;;;;;22.55;11.25;;;;;;;11.68;51.59;99478.22;3146443;28;20044;-66
2022/04/05 06:18:47;;;;;;;26.35;12.80;;;;;;;11.71;51.74;99482.44;3148216;28;20106;-67
2022/04/05 06:20:21;;;;;;;19.75;11.13;;;;;;;11.79;51.62;99485.47;3150189;28;20472;-68
2022/04/05 06:21:56;;;;;;;25.08;11.20;;;;;;;11.79;51.56;99477.66;3154611;28;20114;-67
2022/04/05 06:23:28;;;;;;;30.58;10.65;;;;;;;11.82;51.43;99488.75;3155611;28;20443;-67
2022/04/05 06:25:00;;;;;;;23.80;11.25;;;;;;;11.78;51.51;99489.84;3155944;28;20203;-66
2022/04/05 06:26:32;;;;;;;18.27;11.27;;;;;;;11.77;51.50;99489.91;3153448;28;20052;-67
2022/04/05 06:28:05;;;;;;;20.95;10.32;;;;;;;11.67;51.58;99487.00;3151727;28;20044;-66
2022/04/05 06:29:37;;;;;;;24.65;10.65;;;;;;;11.66;51.70;99495.75;3149786;28;20105;-67
2022/04/05 06:31:10;;;;;;;21.10;10.43;;;;;;;11.68;51.71;99493.88;3153806;28;20044;-65
2022/04/05 06:32:43;;;;;;;21.05;10.88;;;;;;;11.72;51.71;99490.19;3155902;28;20131;-65
2022/04/05 06:34:15;;;;;;;;;;;;;;;11.58;51.56;99493.53;3157515;28;20044;-65
2022/04/05 06:35:48;;;;;;;17.08;10.43;;;;;;;11.61;51.79;99484.72;3154949;28;20325;-68
2022/04/05 06:37:20;;;;;;;20.08;11.20;;;;;;;11.70;51.52;99488.59;3152301;28;20081;-66
2022/04/05 06:38:52;;;;;;;20.52;10.85;;;;;;;11.79;51.02;99490.69;3157455;28;20060;-66
2022/04/05 06:40:24;;;;;;;25.05;11.20;;;;;;;11.83;51.22;99489.59;3150819;28;20118;-66
2022/04/05 06:41:57;;;;;;;17.45;11.30;;;;;;;11.88;51.00;99490.22;3148896;28;20200;-66
2022/04/05 06:43:30;;;;;;;27.02;11.63;;;;;;;11.94;50.99;99495.09;3157327;28;20714;-66
2022/04/05 06:45:02;;;;;;;20.20;11.05;;;;;;;12.05;51.09;99499.72;3155325;28;20064;-66
2022/04/05 06:46:34;;;;;;;22.55;14.27;;;;;;;12.06;50.53;99493.56;3156031;28;20044;-66
2022/04/05 06:48:09;;;;;;;25.27;14.52;;;;;;;12.18;50.67;99502.47;3154589;28;20052;-66
2022/04/05 06:49:41;;;;;;;24.45;13.52;;;;;;;12.21;50.37;99499.69;3155171;28;20056;-65
2022/04/05 06:51:13;;;;;;;32.08;16.58;;;;;;;12.25;50.38;99504.66;3156362;28;20048;-73
2022/04/05 06:52:45;;;;;;;25.60;14.88;;;;;;;12.36;50.29;99500.59;3153254;28;20130;-66
2022/04/05 06:54:17;;;;;;;36.95;16.52;;;;;;;12.47;49.99;99493.81;3157482;28;20195;-69
2022/04/05 06:55:48;;;;;;;26.05;15.88;;;;;;;12.48;49.87;99482.47;3151433;28;20052;-65
2022/04/05 06:57:20;;;;;;;32.63;18.35;;;;;;;12.57;49.51;99486.31;3155758;28;20051;-67
2022/04/05 06:58:52;;;;;;;32.60;18.40;;;;;;;12.72;49.39;99493.25;3156506;28;20204;-66
2022/04/05 07:00:25;;;;;;;30.65;17.42;;;;;;;12.75;49.15;99494.84;3155917;28;20044;-65
2022/04/05 07:01:57;;;;;;;27.25;16.27;;;;;;;12.75;49.09;99489.63;3155909;28;20509;-65
2022/04/05 07:03:31;;;;;;;29.35;16.70;;;;;;;12.84;49.00;99499.50;3156675;28;20044;-63
2022/04/05 07:05:04;;;;;;;26.70;14.88;;;;;;;12.89;48.91;99494.00;3155800;28;20138;-66
2022/04/05 07:06:37;;;;;;;26.33;15.85;;;;;;;12.95;48.60;99493.63;3156032;28;20703;-65